sensor_id;sensor_type;location;lat;lon;timestamp;pressure;altitude;pressure_sealevel;temperature;humidity
62849;BME280;48941;49.516;8.286;2023-06-22T00:00:32;100399.38;;;23.88;75.52
62849;BME280;48941;49.516;8.286;2023-06-22T00:03:00;100409.63;;;23.86;75.40
62849;BME280;48941;49.516;8.286;2023-06-22T00:05:28;100419.69;;;23.79;75.04
62849;BME280;48941;49.516;8.286;2023-06-22T00:07:56;100440.59;;;23.78;74.39
62849;BME280;48941;49.516;8.286;2023-06-22T00:10:25;100481.16;;;23.73;74.72
62849;BME280;48941;49.516;8.286;2023-06-22T00:12:53;100504.38;;;23.76;74.61
62849;BME280;48941;49.516;8.286;2023-06-22T00:15:21;100508.34;;;23.66;74.27
62849;BME280;48941;49.516;8.286;2023-06-22T00:17:49;100501.00;;;23.67;73.75
62849;BME280;48941;49.516;8.286;2023-06-22T00:20:17;100488.25;;;23.67;73.66
62849;BME280;48941;49.516;8.286;2023-06-22T00:22:47;100477.16;;;23.69;72.79
62849;BME280;48941;49.516;8.286;2023-06-22T00:25:14;100465.47;;;23.69;72.38
62849;BME280;48941;49.516;8.286;2023-06-22T00:27:44;100471.72;;;23.69;71.97
62849;BME280;48941;49.516;8.286;2023-06-22T00:30:12;100490.34;;;23.72;72.03
62849;BME280;48941;49.516;8.286;2023-06-22T00:32:40;100537.63;;;23.71;71.92
62849;BME280;48941;49.516;8.286;2023-06-22T00:35:08;100613.13;;;23.76;71.92
62849;BME280;48941;49.516;8.286;2023-06-22T00:37:36;100684.25;;;23.73;72.18
62849;BME280;48941;49.516;8.286;2023-06-22T00:40:06;100721.69;;;23.71;71.95
62849;BME280;48941;49.516;8.286;2023-06-22T00:42:34;100705.56;;;23.69;75.92
62849;BME280;48941;49.516;8.286;2023-06-22T00:45:04;100605.16;;;23.67;77.45
62849;BME280;48941;49.516;8.286;2023-06-22T00:47:34;100550.16;;;23.65;79.54
62849;BME280;48941;49.516;8.286;2023-06-22T00:50:03;100552.44;;;23.62;80.96
62849;BME280;48941;49.516;8.286;2023-06-22T00:52:33;100513.75;;;23.53;81.15
62849;BME280;48941;49.516;8.286;2023-06-22T00:55:02;100441.56;;;23.44;83.41
62849;BME280;48941;49.516;8.286;2023-06-22T00:57:30;100360.88;;;23.31;85.12
62849;BME280;48941;49.516;8.286;2023-06-22T00:59:58;100340.81;;;23.19;84.89
62849;BME280;48941;49.516;8.286;2023-06-22T01:02:27;100338.88;;;23.06;87.00
62849;BME280;48941;49.516;8.286;2023-06-22T01:04:56;100368.53;;;23.01;86.02
62849;BME280;48941;49.516;8.286;2023-06-22T01:07:30;100399.22;;;23.01;86.42
62849;BME280;48941;49.516;8.286;2023-06-22T01:10:05;100426.22;;;23.03;87.24
62849;BME280;48941;49.516;8.286;2023-06-22T01:12:42;100441.47;;;23.04;88.31
62849;BME280;48941;49.516;8.286;2023-06-22T01:15:13;100455.25;;;23.02;88.62
62849;BME280;48941;49.516;8.286;2023-06-22T01:17:44;100459.84;;;23.02;89.91
62849;BME280;48941;49.516;8.286;2023-06-22T01:20:15;100446.25;;;23.02;90.81
62849;BME280;48941;49.516;8.286;2023-06-22T01:22:53;100444.19;;;23.04;92.10
62849;BME280;48941;49.516;8.286;2023-06-22T01:25:28;100446.41;;;22.94;90.12
62849;BME280;48941;49.516;8.286;2023-06-22T01:28:05;100441.63;;;22.96;92.13
62849;BME280;48941;49.516;8.286;2023-06-22T01:30:45;100440.78;;;22.89;91.23
62849;BME280;48941;49.516;8.286;2023-06-22T01:33:14;100437.38;;;22.86;91.59
62849;BME280;48941;49.516;8.286;2023-06-22T01:35:43;100434.84;;;22.78;92.28
62849;BME280;48941;49.516;8.286;2023-06-22T01:38:12;100434.22;;;22.76;92.17
62849;BME280;48941;49.516;8.286;2023-06-22T01:40:40;100431.31;;;22.78;93.95
62849;BME280;48941;49.516;8.286;2023-06-22T01:43:08;100431.69;;;22.68;93.17
62849;BME280;48941;49.516;8.286;2023-06-22T01:45:36;100422.69;;;22.61;92.69
62849;BME280;48941;49.516;8.286;2023-06-22T01:48:06;100432.69;;;22.60;93.04
62849;BME280;48941;49.516;8.286;2023-06-22T01:50:34;100436.19;;;22.54;93.02
62849;BME280;48941;49.516;8.286;2023-06-22T01:53:02;100434.13;;;22.56;93.94
62849;BME280;48941;49.516;8.286;2023-06-22T01:55:31;100433.28;;;22.56;93.48
62849;BME280;48941;49.516;8.286;2023-06-22T01:57:59;100445.59;;;22.52;92.96
62849;BME280;48941;49.516;8.286;2023-06-22T02:00:28;100449.75;;;22.47;92.98
62849;BME280;48941;49.516;8.286;2023-06-22T02:03:01;100451.81;;;22.45;93.14
62849;BME280;48941;49.516;8.286;2023-06-22T02:05:34;100441.34;;;22.42;93.53
62849;BME280;48941;49.516;8.286;2023-06-22T02:08:08;100429.66;;;22.42;94.75
62849;BME280;48941;49.516;8.286;2023-06-22T02:10:38;100426.13;;;22.41;95.60
62849;BME280;48941;49.516;8.286;2023-06-22T02:13:09;100426.94;;;22.42;94.09
62849;BME280;48941;49.516;8.286;2023-06-22T02:15:37;100435.88;;;22.36;94.08
62849;BME280;48941;49.516;8.286;2023-06-22T02:18:06;100435.69;;;22.37;94.08
62849;BME280;48941;49.516;8.286;2023-06-22T02:20:37;100438.78;;;22.34;93.80
62849;BME280;48941;49.516;8.286;2023-06-22T02:23:06;100433.59;;;22.33;93.18
62849;BME280;48941;49.516;8.286;2023-06-22T02:25:34;100438.41;;;22.37;95.01
62849;BME280;48941;49.516;8.286;2023-06-22T02:28:03;100442.78;;;22.38;94.83
62849;BME280;48941;49.516;8.286;2023-06-22T02:30:31;100437.78;;;22.35;94.28
62849;BME280;48941;49.516;8.286;2023-06-22T02:32:59;100438.34;;;22.31;95.17
62849;BME280;48941;49.516;8.286;2023-06-22T02:35:28;100435.41;;;22.25;95.47
62849;BME280;48941;49.516;8.286;2023-06-22T02:37:59;100431.38;;;22.21;96.64
62849;BME280;48941;49.516;8.286;2023-06-22T02:40:28;100427.59;;;22.16;96.85
62849;BME280;48941;49.516;8.286;2023-06-22T02:42:58;100405.25;;;22.14;96.55
62849;BME280;48941;49.516;8.286;2023-06-22T02:45:29;100400.44;;;22.09;96.86
62849;BME280;48941;49.516;8.286;2023-06-22T02:47:57;100397.47;;;22.04;97.12
62849;BME280;48941;49.516;8.286;2023-06-22T02:50:25;100397.81;;;21.94;97.62
62849;BME280;48941;49.516;8.286;2023-06-22T02:52:53;100399.66;;;21.87;98.13
62849;BME280;48941;49.516;8.286;2023-06-22T02:55:23;100386.31;;;21.92;98.32
62849;BME280;48941;49.516;8.286;2023-06-22T02:57:51;100390.72;;;21.93;97.82
62849;BME280;48941;49.516;8.286;2023-06-22T03:00:19;100379.47;;;21.96;98.34
62849;BME280;48941;49.516;8.286;2023-06-22T03:02:48;100393.25;;;21.95;97.20
62849;BME280;48941;49.516;8.286;2023-06-22T03:05:17;100381.78;;;21.99;97.96
62849;BME280;48941;49.516;8.286;2023-06-22T03:07:45;100380.31;;;21.97;98.14
62849;BME280;48941;49.516;8.286;2023-06-22T03:10:14;100392.81;;;21.98;97.59
62849;BME280;48941;49.516;8.286;2023-06-22T03:12:43;100395.28;;;21.93;96.98
62849;BME280;48941;49.516;8.286;2023-06-22T03:15:12;100395.69;;;21.90;96.75
62849;BME280;48941;49.516;8.286;2023-06-22T03:17:40;100394.22;;;21.87;97.83
62849;BME280;48941;49.516;8.286;2023-06-22T03:20:09;100396.06;;;21.86;97.69
62849;BME280;48941;49.516;8.286;2023-06-22T03:22:38;100389.63;;;21.87;97.81
62849;BME280;48941;49.516;8.286;2023-06-22T03:25:08;100386.47;;;21.84;97.01
62849;BME280;48941;49.516;8.286;2023-06-22T03:27:39;100383.13;;;21.82;96.99
62849;BME280;48941;49.516;8.286;2023-06-22T03:30:10;100384.53;;;21.78;97.64
62849;BME280;48941;49.516;8.286;2023-06-22T03:32:38;100379.91;;;21.72;98.86
62849;BME280;48941;49.516;8.286;2023-06-22T03:35:07;100385.16;;;21.73;98.21
62849;BME280;48941;49.516;8.286;2023-06-22T03:37:34;100385.78;;;21.75;98.28
62849;BME280;48941;49.516;8.286;2023-06-22T03:40:03;100384.16;;;21.81;98.96
62849;BME280;48941;49.516;8.286;2023-06-22T03:42:33;100382.09;;;21.83;98.71
62849;BME280;48941;49.516;8.286;2023-06-22T03:45:01;100382.47;;;21.80;98.10
62849;BME280;48941;49.516;8.286;2023-06-22T03:47:31;100383.53;;;21.79;98.18
62849;BME280;48941;49.516;8.286;2023-06-22T03:49:59;100385.38;;;21.78;98.33
62849;BME280;48941;49.516;8.286;2023-06-22T03:52:30;100383.91;;;21.76;98.55
62849;BME280;48941;49.516;8.286;2023-06-22T03:54:57;100390.94;;;21.70;98.42
62849;BME280;48941;49.516;8.286;2023-06-22T03:57:25;100389.06;;;21.71;98.22
62849;BME280;48941;49.516;8.286;2023-06-22T03:59:56;100385.72;;;21.68;98.57
62849;BME280;48941;49.516;8.286;2023-06-22T04:02:24;100397.59;;;21.67;98.30
62849;BME280;48941;49.516;8.286;2023-06-22T04:04:53;100382.75;;;21.63;98.15
62849;BME280;48941;49.516;8.286;2023-06-22T04:07:22;100387.53;;;21.61;98.02
62849;BME280;48941;49.516;8.286;2023-06-22T04:09:49;100381.94;;;21.63;98.37
62849;BME280;48941;49.516;8.286;2023-06-22T04:12:17;100388.19;;;21.63;98.67
62849;BME280;48941;49.516;8.286;2023-06-22T04:14:45;100384.44;;;21.64;99.06
62849;BME280;48941;49.516;8.286;2023-06-22T04:17:13;100381.72;;;21.64;99.52
62849;BME280;48941;49.516;8.286;2023-06-22T04:19:41;100388.84;;;21.65;99.36
62849;BME280;48941;49.516;8.286;2023-06-22T04:22:10;100384.25;;;21.66;99.68
62849;BME280;48941;49.516;8.286;2023-06-22T04:24:38;100375.28;;;21.65;99.06
62849;BME280;48941;49.516;8.286;2023-06-22T04:27:06;100370.25;;;21.62;99.28
62849;BME280;48941;49.516;8.286;2023-06-22T04:29:34;100382.13;;;21.61;99.07
62849;BME280;48941;49.516;8.286;2023-06-22T04:32:02;100390.72;;;21.65;99.05
62849;BME280;48941;49.516;8.286;2023-06-22T04:34:32;100389.84;;;21.64;98.75
62849;BME280;48941;49.516;8.286;2023-06-22T04:36:59;100390.06;;;21.63;98.47
62849;BME280;48941;49.516;8.286;2023-06-22T04:39:28;100392.78;;;21.63;98.61
62849;BME280;48941;49.516;8.286;2023-06-22T04:41:58;100390.72;;;21.65;98.31
62849;BME280;48941;49.516;8.286;2023-06-22T04:44:27;100384.88;;;21.68;98.26
62849;BME280;48941;49.516;8.286;2023-06-22T04:46:56;100385.72;;;21.68;98.27
62849;BME280;48941;49.516;8.286;2023-06-22T04:49:27;100380.09;;;21.70;97.94
62849;BME280;48941;49.516;8.286;2023-06-22T04:51:59;100379.72;;;21.73;98.12
62849;BME280;48941;49.516;8.286;2023-06-22T04:54:28;100390.56;;;21.73;97.67
62849;BME280;48941;49.516;8.286;2023-06-22T04:56:59;100385.59;;;21.77;97.67
62849;BME280;48941;49.516;8.286;2023-06-22T04:59:28;100378.53;;;21.82;97.57
62849;BME280;48941;49.516;8.286;2023-06-22T05:01:57;100360.63;;;21.88;97.88
62849;BME280;48941;49.516;8.286;2023-06-22T05:04:26;100352.75;;;21.93;97.06
62849;BME280;48941;49.516;8.286;2023-06-22T05:06:59;100362.38;;;21.96;97.11
62849;BME280;48941;49.516;8.286;2023-06-22T05:09:28;100356.34;;;22.00;96.92
62849;BME280;48941;49.516;8.286;2023-06-22T05:11:57;100355.53;;;22.06;96.87
62849;BME280;48941;49.516;8.286;2023-06-22T05:14:26;100361.22;;;22.12;96.45
62849;BME280;48941;49.516;8.286;2023-06-22T05:16:54;100353.09;;;22.18;96.23
62849;BME280;48941;49.516;8.286;2023-06-22T05:19:25;100359.44;;;22.25;96.01
62849;BME280;48941;49.516;8.286;2023-06-22T05:22:00;100351.34;;;22.32;95.76
62849;BME280;48941;49.516;8.286;2023-06-22T05:24:29;100356.19;;;22.37;95.45
62849;BME280;48941;49.516;8.286;2023-06-22T05:26:56;100349.09;;;22.42;95.48
62849;BME280;48941;49.516;8.286;2023-06-22T05:29:24;100340.56;;;22.52;95.67
62849;BME280;48941;49.516;8.286;2023-06-22T05:31:53;100330.41;;;22.61;95.24
62849;BME280;48941;49.516;8.286;2023-06-22T05:34:21;100325.16;;;22.66;95.43
62849;BME280;48941;49.516;8.286;2023-06-22T05:36:49;100326.25;;;22.72;94.78
62849;BME280;48941;49.516;8.286;2023-06-22T05:39:16;100340.47;;;22.80;94.17
62849;BME280;48941;49.516;8.286;2023-06-22T05:41:46;100329.44;;;22.89;93.94
62849;BME280;48941;49.516;8.286;2023-06-22T05:44:14;100329.63;;;22.94;93.92
62849;BME280;48941;49.516;8.286;2023-06-22T05:46:44;100335.06;;;23.00;93.44
62849;BME280;48941;49.516;8.286;2023-06-22T05:49:13;100334.94;;;23.09;93.36
62849;BME280;48941;49.516;8.286;2023-06-22T05:51:41;100333.69;;;23.18;92.78
62849;BME280;48941;49.516;8.286;2023-06-22T05:54:09;100334.09;;;23.21;92.42
62849;BME280;48941;49.516;8.286;2023-06-22T05:56:39;100333.28;;;23.27;92.64
62849;BME280;48941;49.516;8.286;2023-06-22T05:59:09;100341.41;;;23.34;91.45
62849;BME280;48941;49.516;8.286;2023-06-22T06:01:36;100337.47;;;23.43;90.55
62849;BME280;48941;49.516;8.286;2023-06-22T06:04:06;100332.25;;;23.49;90.87
62849;BME280;48941;49.516;8.286;2023-06-22T06:06:35;100335.78;;;23.56;90.06
62849;BME280;48941;49.516;8.286;2023-06-22T06:09:04;100339.16;;;23.64;90.32
62849;BME280;48941;49.516;8.286;2023-06-22T06:11:31;100337.44;;;23.70;90.52
62849;BME280;48941;49.516;8.286;2023-06-22T06:14:01;100341.47;;;23.81;90.14
62849;BME280;48941;49.516;8.286;2023-06-22T06:16:30;100342.09;;;23.83;88.06
62849;BME280;48941;49.516;8.286;2023-06-22T06:18:58;100329.28;;;23.90;88.57
62849;BME280;48941;49.516;8.286;2023-06-22T06:21:25;100316.53;;;23.97;87.67
62849;BME280;48941;49.516;8.286;2023-06-22T06:23:56;100318.19;;;24.05;85.91
62849;BME280;48941;49.516;8.286;2023-06-22T06:26:25;100327.16;;;24.19;85.96
62849;BME280;48941;49.516;8.286;2023-06-22T06:28:56;100312.69;;;24.25;84.58
62849;BME280;48941;49.516;8.286;2023-06-22T06:31:25;100307.19;;;24.32;84.73
62849;BME280;48941;49.516;8.286;2023-06-22T06:33:56;100322.03;;;24.42;84.51
62849;BME280;48941;49.516;8.286;2023-06-22T06:36:24;100317.84;;;24.53;83.36
62849;BME280;48941;49.516;8.286;2023-06-22T06:38:52;100321.78;;;24.57;79.62
62849;BME280;48941;49.516;8.286;2023-06-22T06:41:19;100323.44;;;24.65;78.06
62849;BME280;48941;49.516;8.286;2023-06-22T06:43:47;100320.66;;;24.72;77.64
62849;BME280;48941;49.516;8.286;2023-06-22T06:46:15;100327.13;;;24.77;76.71
62849;BME280;48941;49.516;8.286;2023-06-22T06:48:45;100323.53;;;24.83;76.04
62849;BME280;48941;49.516;8.286;2023-06-22T06:51:14;100314.28;;;24.91;75.68
62849;BME280;48941;49.516;8.286;2023-06-22T06:53:42;100321.34;;;24.99;74.68
62849;BME280;48941;49.516;8.286;2023-06-22T06:56:10;100312.91;;;25.07;73.50
62849;BME280;48941;49.516;8.286;2023-06-22T06:58:40;100315.38;;;25.15;73.97
62849;BME280;48941;49.516;8.286;2023-06-22T07:01:08;100306.97;;;25.17;72.95
62849;BME280;48941;49.516;8.286;2023-06-22T07:03:36;100310.09;;;25.20;74.67
62849;BME280;48941;49.516;8.286;2023-06-22T07:06:08;100297.94;;;25.23;73.28
62849;BME280;48941;49.516;8.286;2023-06-22T07:08:37;100294.13;;;25.31;72.96
62849;BME280;48941;49.516;8.286;2023-06-22T07:11:06;100300.72;;;25.41;73.16
62849;BME280;48941;49.516;8.286;2023-06-22T07:13:34;100298.53;;;25.50;72.48
62849;BME280;48941;49.516;8.286;2023-06-22T07:16:02;100297.41;;;25.58;71.08
62849;BME280;48941;49.516;8.286;2023-06-22T07:18:30;100301.38;;;25.62;70.93
62849;BME280;48941;49.516;8.286;2023-06-22T07:20:58;100294.19;;;25.68;70.82
62849;BME280;48941;49.516;8.286;2023-06-22T07:23:26;100293.28;;;25.74;70.47
62849;BME280;48941;49.516;8.286;2023-06-22T07:25:55;100293.22;;;25.80;70.04
62849;BME280;48941;49.516;8.286;2023-06-22T07:28:22;100298.81;;;25.86;69.00
62849;BME280;48941;49.516;8.286;2023-06-22T07:30:50;100296.09;;;25.92;67.91
62849;BME280;48941;49.516;8.286;2023-06-22T07:33:18;100304.19;;;25.99;67.85
62849;BME280;48941;49.516;8.286;2023-06-22T07:35:46;100302.44;;;26.05;67.15
62849;BME280;48941;49.516;8.286;2023-06-22T07:38:15;100291.91;;;26.08;67.39
62849;BME280;48941;49.516;8.286;2023-06-22T07:40:42;100294.09;;;26.18;68.42
62849;BME280;48941;49.516;8.286;2023-06-22T07:43:12;100302.44;;;26.23;67.91
62849;BME280;48941;49.516;8.286;2023-06-22T07:45:40;100287.03;;;26.29;67.91
62849;BME280;48941;49.516;8.286;2023-06-22T07:48:20;100295.13;;;26.35;66.52
62849;BME280;48941;49.516;8.286;2023-06-22T07:50:48;100294.38;;;26.47;66.49
62849;BME280;48941;49.516;8.286;2023-06-22T07:53:15;100304.47;;;26.46;65.90
62849;BME280;48941;49.516;8.286;2023-06-22T07:55:43;100285.03;;;26.54;65.37
62849;BME280;48941;49.516;8.286;2023-06-22T07:58:16;100288.69;;;26.67;65.99
62849;BME280;48941;49.516;8.286;2023-06-22T08:00:46;100293.59;;;26.76;64.85
62849;BME280;48941;49.516;8.286;2023-06-22T08:03:15;100286.00;;;26.78;63.94
62849;BME280;48941;49.516;8.286;2023-06-22T08:05:46;100276.59;;;26.74;64.18
62849;BME280;48941;49.516;8.286;2023-06-22T08:08:15;100268.50;;;26.79;64.87
62849;BME280;48941;49.516;8.286;2023-06-22T08:10:43;100266.59;;;26.80;63.02
62849;BME280;48941;49.516;8.286;2023-06-22T08:13:11;100261.31;;;26.97;63.49
62849;BME280;48941;49.516;8.286;2023-06-22T08:15:40;100253.75;;;27.11;62.78
62849;BME280;48941;49.516;8.286;2023-06-22T08:18:08;100246.78;;;27.27;62.51
62849;BME280;48941;49.516;8.286;2023-06-22T08:20:36;100265.44;;;27.41;61.86
62849;BME280;48941;49.516;8.286;2023-06-22T08:23:03;100266.63;;;27.46;61.34
62849;BME280;48941;49.516;8.286;2023-06-22T08:25:32;100254.88;;;27.45;60.96
62849;BME280;48941;49.516;8.286;2023-06-22T08:28:01;100258.56;;;27.51;61.36
62849;BME280;48941;49.516;8.286;2023-06-22T08:30:29;100267.81;;;27.61;60.41
62849;BME280;48941;49.516;8.286;2023-06-22T08:32:58;100268.41;;;27.64;60.06
62849;BME280;48941;49.516;8.286;2023-06-22T08:35:26;100254.94;;;27.74;59.49
62849;BME280;48941;49.516;8.286;2023-06-22T08:37:56;100250.94;;;27.76;59.19
62849;BME280;48941;49.516;8.286;2023-06-22T08:40:25;100253.69;;;27.88;58.09
62849;BME280;48941;49.516;8.286;2023-06-22T08:42:54;100256.88;;;27.97;58.38
62849;BME280;48941;49.516;8.286;2023-06-22T08:45:22;100256.09;;;28.13;57.57
62849;BME280;48941;49.516;8.286;2023-06-22T08:47:52;100254.66;;;28.23;57.50
62849;BME280;48941;49.516;8.286;2023-06-22T08:50:21;100253.09;;;28.27;57.16
62849;BME280;48941;49.516;8.286;2023-06-22T08:52:49;100245.91;;;28.37;56.09
62849;BME280;48941;49.516;8.286;2023-06-22T08:55:17;100247.50;;;28.62;55.74
62849;BME280;48941;49.516;8.286;2023-06-22T08:57:45;100245.94;;;28.66;54.81
62849;BME280;48941;49.516;8.286;2023-06-22T09:00:13;100250.44;;;28.89;55.41
62849;BME280;48941;49.516;8.286;2023-06-22T09:02:44;100248.56;;;28.90;54.34
62849;BME280;48941;49.516;8.286;2023-06-22T09:05:12;100247.69;;;28.89;54.59
62849;BME280;48941;49.516;8.286;2023-06-22T09:07:42;100255.50;;;28.97;54.30
62849;BME280;48941;49.516;8.286;2023-06-22T09:10:10;100242.81;;;29.08;54.44
62849;BME280;48941;49.516;8.286;2023-06-22T09:12:39;100236.44;;;29.19;54.75
62849;BME280;48941;49.516;8.286;2023-06-22T09:15:07;100242.19;;;29.18;53.93
62849;BME280;48941;49.516;8.286;2023-06-22T09:17:42;100240.09;;;29.25;53.94
62849;BME280;48941;49.516;8.286;2023-06-22T09:20:10;100236.44;;;29.36;53.41
62849;BME280;48941;49.516;8.286;2023-06-22T09:22:39;100244.38;;;29.55;53.21
62849;BME280;48941;49.516;8.286;2023-06-22T09:25:09;100237.31;;;29.76;52.25
62849;BME280;48941;49.516;8.286;2023-06-22T09:27:37;100228.97;;;29.88;51.90
62849;BME280;48941;49.516;8.286;2023-06-22T09:30:06;100226.38;;;30.03;51.40
62849;BME280;48941;49.516;8.286;2023-06-22T09:32:34;100214.13;;;30.11;50.58
62849;BME280;48941;49.516;8.286;2023-06-22T09:35:04;100212.63;;;30.25;49.97
62849;BME280;48941;49.516;8.286;2023-06-22T09:37:33;100203.78;;;30.40;50.67
62849;BME280;48941;49.516;8.286;2023-06-22T09:40:01;100199.66;;;30.43;47.14
62849;BME280;48941;49.516;8.286;2023-06-22T09:42:36;100192.41;;;30.58;45.91
62849;BME280;48941;49.516;8.286;2023-06-22T09:45:04;100175.81;;;30.81;47.40
62849;BME280;48941;49.516;8.286;2023-06-22T09:47:32;100177.94;;;31.01;44.33
62849;BME280;48941;49.516;8.286;2023-06-22T09:50:00;100172.06;;;31.24;43.39
62849;BME280;48941;49.516;8.286;2023-06-22T09:52:28;100172.19;;;31.45;42.31
62849;BME280;48941;49.516;8.286;2023-06-22T09:55:13;100164.31;;;31.64;41.93
62849;BME280;48941;49.516;8.286;2023-06-22T09:57:44;100163.50;;;31.68;41.53
62849;BME280;48941;49.516;8.286;2023-06-22T10:00:13;100154.19;;;31.80;40.97
62849;BME280;48941;49.516;8.286;2023-06-22T10:02:41;100158.97;;;32.05;40.93
62849;BME280;48941;49.516;8.286;2023-06-22T10:05:11;100156.81;;;32.12;40.04
62849;BME280;48941;49.516;8.286;2023-06-22T10:07:39;100153.22;;;32.27;40.17
62849;BME280;48941;49.516;8.286;2023-06-22T10:10:11;100141.69;;;32.45;40.17
62849;BME280;48941;49.516;8.286;2023-06-22T10:12:42;100146.13;;;32.57;39.60
62849;BME280;48941;49.516;8.286;2023-06-22T10:15:12;100136.47;;;32.74;39.56
62849;BME280;48941;49.516;8.286;2023-06-22T10:17:40;100138.13;;;32.91;39.30
62849;BME280;48941;49.516;8.286;2023-06-22T10:20:09;100135.34;;;33.17;37.90
62849;BME280;48941;49.516;8.286;2023-06-22T10:22:40;100124.03;;;33.18;38.92
62849;BME280;48941;49.516;8.286;2023-06-22T10:25:08;100119.09;;;33.10;38.75
62849;BME280;48941;49.516;8.286;2023-06-22T10:27:37;100115.47;;;33.14;38.41
62849;BME280;48941;49.516;8.286;2023-06-22T10:30:07;100110.50;;;33.22;37.82
62849;BME280;48941;49.516;8.286;2023-06-22T10:32:37;100101.06;;;33.33;37.26
62849;BME280;48941;49.516;8.286;2023-06-22T10:35:05;100093.59;;;33.39;37.46
62849;BME280;48941;49.516;8.286;2023-06-22T10:37:34;100094.13;;;33.46;37.05
62849;BME280;48941;49.516;8.286;2023-06-22T10:40:02;100087.16;;;33.59;36.73
62849;BME280;48941;49.516;8.286;2023-06-22T10:42:30;100086.31;;;33.73;36.56
62849;BME280;48941;49.516;8.286;2023-06-22T10:44:58;100089.81;;;33.84;36.97
62849;BME280;48941;49.516;8.286;2023-06-22T10:47:26;100075.13;;;33.94;36.97
62849;BME280;48941;49.516;8.286;2023-06-22T10:49:55;100075.88;;;34.05;36.31
62849;BME280;48941;49.516;8.286;2023-06-22T10:52:23;100076.38;;;34.17;36.09
62849;BME280;48941;49.516;8.286;2023-06-22T10:54:51;100071.13;;;34.16;36.14
62849;BME280;48941;49.516;8.286;2023-06-22T10:57:19;100079.69;;;34.19;36.01
62849;BME280;48941;49.516;8.286;2023-06-22T10:59:47;100077.47;;;34.11;36.22
62849;BME280;48941;49.516;8.286;2023-06-22T11:02:15;100083.59;;;34.08;35.56
62849;BME280;48941;49.516;8.286;2023-06-22T11:04:43;100085.03;;;34.00;35.96
62849;BME280;48941;49.516;8.286;2023-06-22T11:07:15;100087.78;;;34.00;36.49
62849;BME280;48941;49.516;8.286;2023-06-22T11:09:43;100083.69;;;33.92;37.15
62849;BME280;48941;49.516;8.286;2023-06-22T11:12:11;100074.03;;;33.90;37.55
62849;BME280;48941;49.516;8.286;2023-06-22T11:14:39;100070.13;;;33.96;36.36
62849;BME280;48941;49.516;8.286;2023-06-22T11:17:07;100077.09;;;33.88;36.68
62849;BME280;48941;49.516;8.286;2023-06-22T11:19:35;100074.31;;;33.88;37.35
62849;BME280;48941;49.516;8.286;2023-06-22T11:22:03;100065.47;;;33.91;37.82
62849;BME280;48941;49.516;8.286;2023-06-22T11:24:32;100061.84;;;33.96;37.73
62849;BME280;48941;49.516;8.286;2023-06-22T11:27:00;100067.94;;;33.93;37.65
62849;BME280;48941;49.516;8.286;2023-06-22T11:29:28;100072.97;;;33.86;38.32
62849;BME280;48941;49.516;8.286;2023-06-22T11:32:04;100070.50;;;33.84;38.78
62849;BME280;48941;49.516;8.286;2023-06-22T11:34:33;100055.34;;;33.77;38.51
62849;BME280;48941;49.516;8.286;2023-06-22T11:37:00;100060.59;;;33.78;38.67
62849;BME280;48941;49.516;8.286;2023-06-22T11:39:28;100052.31;;;33.73;39.37
62849;BME280;48941;49.516;8.286;2023-06-22T11:42:10;100065.84;;;33.80;38.33
62849;BME280;48941;49.516;8.286;2023-06-22T11:44:38;100068.88;;;33.78;38.84
62849;BME280;48941;49.516;8.286;2023-06-22T11:47:06;100074.03;;;33.90;38.01
62849;BME280;48941;49.516;8.286;2023-06-22T11:49:34;100062.38;;;34.03;38.02
62849;BME280;48941;49.516;8.286;2023-06-22T11:52:02;100069.47;;;34.15;37.98
62849;BME280;48941;49.516;8.286;2023-06-22T11:54:30;100064.78;;;34.15;38.83
62849;BME280;48941;49.516;8.286;2023-06-22T11:56:58;100066.94;;;34.23;37.87
62849;BME280;48941;49.516;8.286;2023-06-22T11:59:27;100058.97;;;34.11;38.27
62849;BME280;48941;49.516;8.286;2023-06-22T12:01:55;100058.72;;;34.08;38.50
62849;BME280;48941;49.516;8.286;2023-06-22T12:04:24;100045.28;;;33.96;38.86
62849;BME280;48941;49.516;8.286;2023-06-22T12:06:52;100046.75;;;33.83;38.88
62849;BME280;48941;49.516;8.286;2023-06-22T12:09:20;100044.56;;;33.80;39.21
62849;BME280;48941;49.516;8.286;2023-06-22T12:11:48;100044.81;;;33.84;38.83
62849;BME280;48941;49.516;8.286;2023-06-22T12:14:16;100045.34;;;33.86;38.04
62849;BME280;48941;49.516;8.286;2023-06-22T12:16:45;100050.94;;;33.76;38.45
62849;BME280;48941;49.516;8.286;2023-06-22T12:19:13;100052.56;;;33.77;38.43
62849;BME280;48941;49.516;8.286;2023-06-22T12:21:41;100042.06;;;33.79;39.32
62849;BME280;48941;49.516;8.286;2023-06-22T12:24:12;100042.25;;;33.92;38.55
62849;BME280;48941;49.516;8.286;2023-06-22T12:26:39;100051.63;;;33.97;38.40
62849;BME280;48941;49.516;8.286;2023-06-22T12:29:07;100036.63;;;34.08;38.20
62849;BME280;48941;49.516;8.286;2023-06-22T12:31:35;100036.53;;;34.23;37.71
62849;BME280;48941;49.516;8.286;2023-06-22T12:34:06;100033.06;;;34.42;37.54
62849;BME280;48941;49.516;8.286;2023-06-22T12:36:34;100034.03;;;34.56;36.96
62849;BME280;48941;49.516;8.286;2023-06-22T12:39:02;100027.94;;;34.54;37.14
62849;BME280;48941;49.516;8.286;2023-06-22T12:41:30;100034.16;;;34.41;37.38
62849;BME280;48941;49.516;8.286;2023-06-22T12:43:58;100035.28;;;34.40;37.34
62849;BME280;48941;49.516;8.286;2023-06-22T12:46:26;100042.97;;;34.43;37.42
62849;BME280;48941;49.516;8.286;2023-06-22T12:48:54;100040.72;;;34.50;37.70
62849;BME280;48941;49.516;8.286;2023-06-22T12:51:24;100049.78;;;34.56;36.70
62849;BME280;48941;49.516;8.286;2023-06-22T12:53:51;100045.56;;;34.63;37.04
62849;BME280;48941;49.516;8.286;2023-06-22T12:56:19;100046.03;;;34.76;36.86
62849;BME280;48941;49.516;8.286;2023-06-22T12:58:47;100049.31;;;34.78;36.76